Time;durP1;ratioP1;P1;durP2;ratioP2;P2;SDS_P1;SDS_P2;PMS_P1;PMS_P2;Temp;Humidity;BMP_temperature;BMP_pressure;BME280_temperature;BME280_humidity;BME280_pressure;Samples;Min_cycle;Max_cycle;Signal;HPM_P1;HPM_P2
2022/06/27 00:02:31;;;;;;;5.25;1.10;;;;;;;10.46;86.96;100160.16;6116249;23;20009;-77
2022/06/27 00:06:20;;;;;;;;;;;;;;;;;;;;;
2022/06/27 00:09:02;;;;;;;;;;;;;;;;;;;;;
2022/06/27 00:12:20;;;;;;;1.35;0.77;;;;;;;10.29;86.38;100152.19;5992542;23;20392;-79
2022/06/27 00:19:09;;;;;;;2.85;0.90;;;;;;;10.21;86.44;100133.59;5958031;24;20023;-77
2022/06/27 00:25:58;;;;;;;5.65;1.15;;;;;;;10.15;87.35;100123.75;6087354;23;20085;-79
2022/06/27 00:28:24;;;;;;;2.95;1.10;;;;;;;10.24;87.14;100133.03;6100607;23;20018;-77
2022/06/27 00:31:14;;;;;;;12.18;1.65;;;;;;;10.13;87.79;100109.50;6100818;23;20018;-78
2022/06/27 00:33:57;;;;;;;7.35;1.42;;;;;;;10.16;88.13;100119.09;6075012;23;20014;-76
2022/06/27 00:40:37;;;;;;;;;;;;;;;;;;;;;
2022/06/27 00:43:12;;;;;;;10.23;1.42;;;;;;;10.18;88.72;100125.94;6026215;23;20042;-79
2022/06/27 00:45:56;;;;;;;15.13;1.58;;;;;;;10.19;89.03;100122.13;6110876;23;20018;-76
2022/06/27 00:52:24;;;;;;;;;;;;;;;;;;;;;
2022/06/27 00:55:11;;;;;;;5.20;1.30;;;;;;;10.23;89.14;100153.25;6119773;23;20021;-78
2022/06/27 00:58:20;;;;;;;10.18;1.13;;;;;;;10.17;89.12;100154.34;6101762;23;20117;-78
2022/06/27 01:01:09;;;;;;;5.63;1.25;;;;;;;9.92;89.44;100120.41;6074271;23;20048;-76
2022/06/27 01:03:47;;;;;;;;;;;;;;;;;;;;;
2022/06/27 01:06:21;;;;;;;6.50;1.48;;;;;;;9.90;89.16;100130.78;6184116;23;20036;-77
2022/06/27 01:09:35;;;;;;;;;;;;;;;;;;;;;
2022/06/27 01:12:54;;;;;;;;;;;;;;;;;;;;;
2022/06/27 01:16:18;;;;;;;1.67;0.80;;;;;;;9.70;89.14;100119.81;6150871;23;20043;-77
2022/06/27 01:23:16;;;;;;;;;;;;;;;;;;;;;
2022/06/27 01:25:44;;;;;;;1.92;0.77;;;;;;;9.78;88.69;100119.25;5982389;23;20078;-75
2022/06/27 01:29:18;;;;;;;;;;;;;;;;;;;;;
2022/06/27 01:33:01;;;;;;;;;;;;;;;;;;;;;
2022/06/27 01:39:13;;;;;;;5.40;1.23;;;;;;;9.88;89.53;100130.22;5986831;23;20092;-77
2022/06/27 01:42:14;;;;;;;;;;;;;;;;;;;;;
2022/06/27 01:45:01;;;;;;;7.57;1.65;;;;;;;9.82;89.73;100128.56;6014942;23;20054;-78
2022/06/27 01:47:29;;;;;;;6.15;1.30;;;;;;;9.89;90.38;100137.34;6013752;23;20016;-76
2022/06/27 01:50:14;;;;;;;9.05;1.83;;;;;;;9.87;90.56;100139.53;6038005;23;20007;-79
2022/06/27 01:53:19;;;;;;;3.72;1.23;;;;;;;9.68;90.67;100091.94;6077371;23;20457;-78
2022/06/27 01:56:16;;;;;;;5.65;1.50;;;;;;;9.90;90.71;100149.06;6099170;23;20010;-77
2022/06/27 02:03:39;;;;;;;;;;;;;;;;;;;;;
2022/06/27 02:06:19;;;;;;;;;;;;;;;;;;;;;
2022/06/27 02:08:56;;;;;;;5.60;1.25;;;;;;;9.73;90.53;100105.59;5930895;24;20143;-76
2022/06/27 02:12:28;;;;;;;;;;;;;;;;;;;;;
2022/06/27 02:14:59;;;;;;;11.60;1.65;;;;;;;9.90;91.47;100105.38;6180425;23;20490;-79
2022/06/27 02:17:31;;;;;;;12.98;2.13;;;;;;;9.83;91.68;100091.97;6193828;23;20009;-79
2022/06/27 02:20:16;;;;;;;;;;;;;;;;;;;;;
2022/06/27 02:23:27;;;;;;;;;;;;;;;;;;;;;
2022/06/27 02:29:20;;;;;;;6.80;1.85;;;;;;;9.73;91.78;100089.22;6101865;23;20022;-76
2022/06/27 02:31:50;;;;;;;8.77;1.80;;;;;;;9.85;92.09;100114.38;6174669;23;20036;-77
2022/06/27 02:37:45;;;;;;;4.13;1.33;;;;;;;9.76;92.37;100119.53;6144099;23;20012;-76
2022/06/27 02:40:29;;;;;;;7.10;1.45;;;;;;;9.84;92.71;100131.03;6161813;23;20005;-78
2022/06/27 02:43:22;;;;;;;5.32;1.38;;;;;;;9.82;92.09;100131.31;6163756;23;20032;-75
2022/06/27 02:53:52;;;;;;;;;;;;;;;;;;;;;
2022/06/27 03:00:32;;;;;;;;;;;;;;;;;;;;;
2022/06/27 03:03:25;;;;;;;3.47;1.38;;;;;;;9.52;92.63;100085.59;6012703;23;20079;-76
2022/06/27 03:06:51;;;;;;;;;;;;;;;;;;;;;
2022/06/27 03:09:22;;;;;;;11.15;1.73;;;;;;;9.76;92.54;100107.81;6127030;23;20435;-77
2022/06/27 03:12:17;;;;;;;7.68;1.88;;;;;;;9.82;92.76;100112.19;6126542;23;20032;-76
2022/06/27 03:15:22;;;;;;;;;;;;;;;;;;;;;
2022/06/27 03:18:15;;;;;;;5.57;1.40;;;;;;;10.05;92.75;100137.38;6180956;23;20279;-77
2022/06/27 03:21:00;;;;;;;;;;;;;;;;;;;;;
2022/06/27 03:23:35;;;;;;;7.40;1.75;;;;;;;9.92;93.60;100120.41;6192122;23;20459;-78
2022/06/27 03:30:57;;;;;;;2.60;1.08;;;;;;;10.09;93.15;100141.19;6131520;23;20013;-78
2022/06/27 03:36:38;;;;;;;4.07;1.30;;;;;;;10.01;92.57;100123.44;6069367;23;20019;-78
2022/06/27 03:39:52;;;;;;;8.93;1.45;;;;;;;10.06;92.32;100148.03;6165799;23;20444;-76
2022/06/27 03:42:23;;;;;;;9.50;1.63;;;;;;;9.94;92.54;100131.91;6165622;23;20023;-78
2022/06/27 03:51:14;;;;;;;3.55;1.48;;;;;;;9.89;92.36;100134.59;6192580;23;20016;-79
2022/06/27 03:54:24;;;;;;;6.18;1.45;;;;;;;9.82;92.79;100109.44;6139948;23;20061;-79
2022/06/27 03:57:00;;;;;;;;;;;;;;;;;;;;;
2022/06/27 04:02:55;;;;;;;6.13;1.48;;;;;;;10.29;92.55;100130.34;6180552;23;20012;-78
2022/06/27 04:05:46;;;;;;;;;;;;;;;;;;;;;
2022/06/27 04:08:32;;;;;;;;;;;;;;;;;;;;;
2022/06/27 04:15:15;;;;;;;8.55;1.58;;;;;;;10.67;90.12;100126.53;6072533;23;20111;-79
2022/06/27 04:18:38;;;;;;;;;;;;;;;;;;;;;
2022/06/27 04:24:22;;;;;;;6.65;1.73;;;;;;;11.21;89.04;100145.06;5957480;23;20073;-79
2022/06/27 04:26:55;;;;;;;10.07;1.30;;;;;;;11.32;88.75;100143.97;5959298;23;20015;-78
2022/06/27 04:30:08;;;;;;;6.57;1.10;;;;;;;11.45;88.62;100131.59;6169097;23;20001;-79
2022/06/27 04:39:40;;;;;;;5.53;1.15;;;;;;;11.91;86.69;100130.56;6159389;23;20005;-79
2022/06/27 04:42:21;;;;;;;;;;;;;;;;;;;;;
2022/06/27 04:45:46;;;;;;;3.15;1.10;;;;;;;12.27;85.33;100155.06;6191117;23;20031;-76
2022/06/27 04:48:12;;;;;;;5.63;1.60;;;;;;;12.18;85.10;100138.41;6012871;23;20033;-76
2022/06/27 04:51:44;;;;;;;;;;;;;;;;;;;;;
2022/06/27 04:54:12;;;;;;;;;;;;;;;;;;;;;
2022/06/27 05:00:14;;;;;;;13.32;1.80;;;;;;;12.42;83.92;100123.19;6111886;23;20019;-75
2022/06/27 05:03:24;;;;;;;;;;;;;;;;;;;;;
2022/06/27 05:06:13;;;;;;;14.95;2.10;;;;;;;12.44;84.10;100149.22;6167906;23;20036;-76
2022/06/27 05:09:24;;;;;;;;;;;;;;;;;;;;;
2022/06/27 05:12:09;;;;;;;7.03;1.80;;;;;;;12.34;85.29;100158.31;6144178;23;20092;-78
2022/06/27 05:21:15;;;;;;;;;;;;;;;;;;;;;
2022/06/27 05:24:21;;;;;;;;;;;;;;;;;;;;;
2022/06/27 05:27:46;;;;;;;;;;;;;;;;;;;;;
2022/06/27 05:31:10;;;;;;;3.83;1.05;;;;;;;12.55;87.45;100178.19;6099241;23;20044;-75
2022/06/27 05:34:08;;;;;;;10.10;1.38;;;;;;;12.44;86.71;100137.41;6071700;23;20001;-76
2022/06/27 05:37:20;;;;;;;2.22;0.85;;;;;;;12.67;86.17;100158.63;6178186;23;20005;-75
2022/06/27 05:39:49;;;;;;;4.63;1.13;;;;;;;12.65;85.86;100149.88;6190320;23;20063;-76
2022/06/27 05:45:45;;;;;;;;;;;;;;;;;;;;;
2022/06/27 05:48:22;;;;;;;3.85;1.00;;;;;;;12.84;85.21;100149.19;6189220;23;20372;-77
2022/06/27 05:54:12;;;;;;;2.95;0.90;;;;;;;13.22;85.13;100185.88;6068700;23;20015;-75
2022/06/27 05:56:39;;;;;;;6.03;1.13;;;;;;;13.23;84.75;100189.44;6095706;23;20037;-76
2022/06/27 06:02:59;;;;;;;;;;;;;;;;;;;;;
2022/06/27 06:05:57;;;;;;;6.85;0.90;;;;;;;13.31;83.79;100180.56;6017550;23;20062;-75
2022/06/27 06:08:48;;;;;;;;;;;;;;;;;;;;;
2022/06/27 06:11:48;;;;;;;9.00;1.00;;;;;;;13.58;83.70;100198.44;5955200;24;20485;-75
2022/06/27 06:14:53;;;;;;;;;;;;;;;;;;;;;
2022/06/27 06:17:52;;;;;;;5.80;1.17;;;;;;;13.15;84.74;100179.09;5918212;24;20102;-76
2022/06/27 06:21:03;;;;;;;8.73;1.73;;;;;;;13.00;86.37;100174.56;5957888;24;20008;-77
2022/06/27 06:24:14;;;;;;;4.68;0.90;;;;;;;12.92;87.02;100171.31;5900373;24;20381;-80
2022/06/27 06:27:13;;;;;;;3.90;1.08;;;;;;;12.99;87.50;100187.44;5923860;24;20016;-77
2022/06/27 06:30:13;;;;;;;7.30;1.02;;;;;;;12.98;87.02;100207.78;6019434;23;20113;-77
2022/06/27 06:36:53;;;;;;;6.00;1.38;;;;;;;12.85;88.02;100192.78;6051533;23;20006;-78
2022/06/27 06:40:26;;;;;;;5.25;1.10;;;;;;;12.97;88.83;100217.13;6040537;23;20016;-78
2022/06/27 06:42:55;;;;;;;11.43;1.50;;;;;;;12.84;89.66;100206.78;6065828;23;20010;-76
2022/06/27 06:45:21;;;;;;;7.10;1.58;;;;;;;12.70;90.09;100199.22;6068694;23;20010;-76
2022/06/27 06:47:49;;;;;;;12.15;1.25;;;;;;;12.82;90.40;100220.81;6072047;23;20042;-76
2022/06/27 06:50:21;;;;;;;3.22;0.85;;;;;;;12.90;90.74;100222.09;6048568;23;20071;-76
2022/06/27 06:52:51;;;;;;;4.07;1.00;;;;;;;13.04;91.14;100222.25;6069061;23;20011;-77
2022/06/27 06:55:20;;;;;;;3.78;1.45;;;;;;;13.20;90.47;100236.66;6048290;23;20379;-76
2022/06/27 06:57:45;;;;;;;3.28;0.73;;;;;;;13.32;90.03;100234.38;6053528;23;20022;-77
2022/06/27 07:00:11;;;;;;;5.95;0.80;;;;;;;13.38;89.20;100238.75;6075114;23;20501;-77
2022/06/27 07:02:38;;;;;;;5.68;1.08;;;;;;;13.46;89.47;100233.72;6100267;23;20338;-75
2022/06/27 07:05:08;;;;;;;7.85;1.00;;;;;;;13.52;88.96;100240.81;6075374;23;20042;-77
2022/06/27 07:07:34;;;;;;;3.92;0.82;;;;;;;13.58;88.61;100242.38;6077366;23;20010;-75
2022/06/27 07:10:03;;;;;;;4.85;0.85;;;;;;;13.61;88.65;100236.34;6099462;23;20010;-74
2022/06/27 07:12:29;;;;;;;4.47;0.77;;;;;;;13.69;88.17;100249.41;6087704;23;20005;-74
2022/06/27 07:14:56;;;;;;;7.50;0.93;;;;;;;13.58;87.65;100239.63;6162778;23;20092;-75
2022/06/27 07:17:25;;;;;;;5.88;1.05;;;;;;;13.43;87.88;100246.94;6189554;23;19985;-75
2022/06/27 07:19:52;;;;;;;8.45;0.82;;;;;;;13.34;88.20;100248.66;6142280;23;20092;-75
2022/06/27 07:22:19;;;;;;;5.80;0.82;;;;;;;13.18;89.62;100255.38;6163860;23;20009;-76
2022/06/27 07:24:48;;;;;;;2.70;0.70;;;;;;;13.09;91.17;100253.22;6140628;23;20432;-76
2022/06/27 07:27:18;;;;;;;3.17;0.82;;;;;;;12.95;91.94;100252.25;6162560;23;20055;-75
2022/06/27 07:29:54;;;;;;;4.28;0.82;;;;;;;12.79;92.44;100258.97;6189611;23;20009;-74
2022/06/27 07:32:20;;;;;;;2.67;0.65;;;;;;;12.64;94.21;100255.19;6163612;23;20432;-75
2022/06/27 07:34:50;;;;;;;4.03;0.80;;;;;;;12.58;95.92;100259.09;6137687;23;20014;-76
2022/06/27 07:37:21;;;;;;;4.65;0.65;;;;;;;12.58;96.75;100256.34;6154542;23;20009;-75
2022/06/27 07:40:46;;;;;;;4.20;0.88;;;;;;;12.64;97.80;100243.44;6162139;23;20364;-75
2022/06/27 07:43:19;;;;;;;2.20;0.82;;;;;;;12.79;97.78;100262.53;6125751;23;20029;-75
2022/06/27 07:45:44;;;;;;;2.08;0.70;;;;;;;12.74;97.51;100257.06;6100718;23;20006;-73
2022/06/27 07:48:28;;;;;;;1.65;0.63;;;;;;;12.67;97.54;100246.41;6176508;23;20031;-74
2022/06/27 07:50:58;;;;;;;6.18;0.60;;;;;;;12.72;98.01;100245.56;6161184;23;20001;-74
2022/06/27 07:53:24;;;;;;;3.70;0.52;;;;;;;12.83;97.91;100265.53;6159725;23;20020;-74
2022/06/27 07:55:54;;;;;;;4.57;0.80;;;;;;;12.93;98.32;100260.75;6161922;23;20073;-74
2022/06/27 07:58:30;;;;;;;4.65;1.00;;;;;;;13.10;97.28;100268.59;6162182;23;20029;-75
2022/06/27 08:00:58;;;;;;;5.07;0.85;;;;;;;13.38;97.07;100271.69;6140148;23;20009;-73
2022/06/27 08:03:42;;;;;;;3.65;0.73;;;;;;;13.81;96.44;100281.19;6186965;23;20723;-74
2022/06/27 08:06:18;;;;;;;;;;;;;;;14.39;94.54;100283.78;6166841;23;19997;-74
2022/06/27 08:08:57;;;;;;;3.78;0.93;;;;;;;14.78;92.49;100282.72;6162696;23;19931;-75
2022/06/27 08:11:32;;;;;;;3.30;1.23;;;;;;;15.02;90.04;100284.56;6187709;23;20328;-74
2022/06/27 08:14:03;;;;;;;1.92;0.65;;;;;;;15.13;89.71;100288.00;6162011;23;20300;-74
2022/06/27 08:16:30;;;;;;;1.83;0.60;;;;;;;15.32;88.94;100296.22;6188488;23;20001;-74
2022/06/27 08:19:07;;;;;;;;;;;;;;;;;;;;;
2022/06/27 08:21:37;;;;;;;2.72;0.50;;;;;;;15.86;86.44;100296.69;6188260;23;20547;-76
2022/06/27 08:24:09;;;;;;;1.98;0.50;;;;;;;15.86;84.50;100286.47;6161359;23;20016;-73
2022/06/27 08:26:36;;;;;;;1.63;0.38;;;;;;;15.65;84.55;100285.19;6163238;23;20005;-74
2022/06/27 08:29:03;;;;;;;3.60;0.70;;;;;;;15.74;84.32;100294.41;6187558;23;20036;-73
2022/06/27 08:31:40;;;;;;;;;;;;;;;;;;;;;
2022/06/27 08:34:06;;;;;;;1.88;0.70;;;;;;;15.53;81.34;100283.72;6185277;23;20057;-72
2022/06/27 08:36:34;;;;;;;1.33;0.47;;;;;;;15.59;79.40;100302.94;6187427;23;20001;-73
2022/06/27 08:39:02;;;;;;;3.67;0.50;;;;;;;15.63;79.74;100285.47;6187541;23;20068;-76
2022/06/27 08:41:28;;;;;;;2.47;0.68;;;;;;;15.95;79.13;100291.28;6188121;23;20008;-73
2022/06/27 08:44:00;;;;;;;3.83;0.43;;;;;;;16.58;76.30;100318.13;6185530;23;20000;-74
2022/06/27 08:46:28;;;;;;;7.63;0.80;;;;;;;17.13;72.60;100294.28;6185922;23;20008;-74
2022/06/27 08:48:55;;;;;;;3.67;0.80;;;;;;;17.40;71.98;100304.38;6159449;23;20005;-73
2022/06/27 08:51:20;;;;;;;2.75;0.65;;;;;;;16.85;73.83;100305.41;6160809;23;20027;-73
2022/06/27 08:53:51;;;;;;;2.88;0.55;;;;;;;16.20;77.43;100318.34;6137320;23;20005;-74
2022/06/27 08:56:17;;;;;;;1.95;0.55;;;;;;;15.50;78.57;100305.56;6186414;23;20033;-73
2022/06/27 08:58:46;;;;;;;1.33;0.55;;;;;;;14.86;80.34;100310.72;6185915;23;20156;-72
2022/06/27 09:01:15;;;;;;;3.88;0.63;;;;;;;14.54;81.94;100309.47;6185940;23;20593;-71
2022/06/27 09:03:58;;;;;;;4.75;0.93;;;;;;;14.71;83.80;100315.31;6158786;23;20754;-73
2022/06/27 09:06:26;;;;;;;3.60;0.75;;;;;;;15.14;83.09;100318.00;6187501;23;19997;-73
2022/06/27 09:09:03;;;;;;;3.13;0.63;;;;;;;15.68;81.94;100317.66;6161625;23;20004;-73
2022/06/27 09:11:31;;;;;;;4.47;1.00;;;;;;;16.38;78.20;100313.88;6159813;23;20025;-72
2022/06/27 09:13:57;;;;;;;1.35;0.52;;;;;;;17.00;76.09;100317.25;6187978;23;20020;-74
2022/06/27 09:16:23;;;;;;;4.50;0.50;;;;;;;17.62;73.26;100316.53;6185832;23;20004;-74
2022/06/27 09:18:49;;;;;;;1.90;0.50;;;;;;;18.52;73.32;100321.03;6136777;23;20020;-73
2022/06/27 09:21:23;;;;;;;2.97;0.40;;;;;;;19.54;70.08;100330.84;6161800;23;20091;-74
2022/06/27 09:23:53;;;;;;;3.55;0.50;;;;;;;20.12;66.19;100335.28;6162251;23;20080;-72
2022/06/27 09:26:30;;;;;;;3.67;0.50;;;;;;;19.99;60.68;100342.69;6162120;23;20012;-75
2022/06/27 09:29:14;;;;;;;2.28;0.50;;;;;;;19.41;62.28;100340.19;6187791;23;20000;-74
2022/06/27 09:31:45;;;;;;;10.00;0.60;;;;;;;19.25;63.78;100342.63;6160414;23;20024;-74
2022/06/27 09:34:23;;;;;;;2.10;0.70;;;;;;;19.45;63.39;100346.72;6161811;23;20020;-74
2022/06/27 09:36:55;;;;;;;1.52;0.70;;;;;;;19.60;62.36;100348.16;6186564;23;20005;-74
2022/06/27 09:39:29;;;;;;;2.45;0.70;;;;;;;19.60;60.99;100350.91;6161447;23;20013;-74
2022/06/27 09:42:03;;;;;;;;;;;;;;;19.85;59.33;100354.00;6187410;23;20356;-73
2022/06/27 09:44:29;;;;;;;4.32;0.55;;;;;;;20.77;55.50;100360.16;6186503;23;19968;-73
2022/06/27 09:47:07;;;;;;;2.67;0.47;;;;;;;21.10;53.54;100361.06;6158650;23;20022;-75
2022/06/27 09:49:38;;;;;;;2.05;0.38;;;;;;;21.31;52.24;100362.22;6160989;23;20428;-73
2022/06/27 09:52:09;;;;;;;1.48;0.73;;;;;;;21.51;50.21;100355.00;6185175;23;20012;-74
2022/06/27 09:54:37;;;;;;;3.17;0.57;;;;;;;21.51;50.83;100355.00;6186339;23;20440;-74
2022/06/27 09:57:28;;;;;;;0.77;0.47;;;;;;;22.07;51.13;100360.97;6158192;23;20009;-73
2022/06/27 09:59:54;;;;;;;3.80;0.50;;;;;;;22.53;48.69;100354.53;6156713;23;20016;-73
2022/06/27 10:02:22;;;;;;;7.25;0.70;;;;;;;23.06;46.74;100352.59;6132144;23;20037;-74
2022/06/27 10:04:49;;;;;;;2.45;0.50;;;;;;;23.69;45.73;100356.78;6157902;23;20010;-75
2022/06/27 10:07:16;;;;;;;0.95;0.50;;;;;;;24.15;43.14;100348.88;6157222;23;20005;-74
2022/06/27 10:09:42;;;;;;;2.28;0.47;;;;;;;24.32;40.36;100349.66;6132318;23;20122;-73
2022/06/27 10:12:23;;;;;;;1.25;0.32;;;;;;;24.10;42.36;100337.94;6129771;23;20441;-74
2022/06/27 10:15:10;;;;;;;2.30;0.43;;;;;;;23.68;40.16;100342.03;6130661;23;20013;-73
2022/06/27 10:17:38;;;;;;;3.60;0.63;;;;;;;23.25;41.05;100345.59;6129779;23;20005;-73
2022/06/27 10:20:12;;;;;;;2.22;0.38;;;;;;;23.18;41.77;100355.34;6129993;23;20020;-76
2022/06/27 10:22:38;;;;;;;2.85;0.73;;;;;;;23.14;39.71;100365.63;6105715;23;20009;-74
2022/06/27 10:25:25;;;;;;;1.20;0.40;;;;;;;22.75;43.24;100368.00;6129870;23;19998;-73
2022/06/27 10:28:14;;;;;;;2.45;0.47;;;;;;;22.86;42.81;100368.31;6130054;23;20013;-74
2022/06/27 10:30:56;;;;;;;3.60;0.40;;;;;;;23.64;43.25;100359.81;6144474;23;20009;-72
2022/06/27 10:33:28;;;;;;;1.00;0.25;;;;;;;26.80;38.22;100370.63;6155459;23;20006;-74
2022/06/27 10:36:04;;;;;;;2.78;0.57;;;;;;;31.94;28.78;100387.38;6151016;23;20068;-74
2022/06/27 10:38:39;;;;;;;0.93;0.35;;;;;;;33.22;24.52;100398.81;6151554;23;20011;-73
2022/06/27 10:41:25;;;;;;;2.47;0.22;;;;;;;31.31;26.46;100393.75;6154501;23;20005;-73
2022/06/27 10:43:54;;;;;;;1.42;0.57;;;;;;;29.13;27.41;100384.63;6119865;23;20002;-74
2022/06/27 10:46:19;;;;;;;3.60;0.50;;;;;;;26.73;30.97;100379.72;6129507;23;20321;-72
2022/06/27 10:48:58;;;;;;;2.50;0.40;;;;;;;26.08;33.06;100391.81;6152940;23;20036;-75
2022/06/27 10:51:26;;;;;;;2.90;0.70;;;;;;;26.09;33.61;100401.84;6157029;23;20010;-75
2022/06/27 10:54:03;;;;;;;1.25;0.32;;;;;;;25.09;36.00;100398.63;6157312;23;20005;-73
2022/06/27 10:56:39;;;;;;;2.17;0.40;;;;;;;23.13;39.53;100400.25;6155188;23;20009;-74
2022/06/27 10:59:14;;;;;;;2.03;0.50;;;;;;;21.14;45.19;100422.34;6129068;23;20026;-74
2022/06/27 11:01:56;;;;;;;3.05;0.50;;;;;;;19.33;51.20;100411.13;6150797;23;20467;-75
2022/06/27 11:04:30;;;;;;;1.33;0.45;;;;;;;17.95;57.58;100391.78;6129127;23;20012;-73
2022/06/27 11:06:59;;;;;;;1.80;0.65;;;;;;;17.35;60.39;100397.69;6103307;23;20440;-74
2022/06/27 11:09:37;;;;;;;1.00;0.40;;;;;;;17.06;61.95;100404.41;6130042;23;20009;-74
2022/06/27 11:12:07;;;;;;;1.52;0.28;;;;;;;16.97;63.04;100400.72;6155720;23;20029;-73
2022/06/27 11:15:11;;;;;;;0.55;0.38;;;;;;;16.85;63.05;100403.97;6127685;23;20006;-74
2022/06/27 11:17:44;;;;;;;3.50;0.40;;;;;;;16.45;62.87;100396.22;6141445;23;20021;-74
2022/06/27 11:20:13;;;;;;;4.28;0.40;;;;;;;16.40;63.16;100416.47;6155238;23;20064;-74
2022/06/27 11:23:02;;;;;;;;;;;;;;;;;;;;;
2022/06/27 11:32:07;;;;;;;1.20;0.25;;;;;;;18.03;56.84;100425.34;6156550;23;20017;-75
2022/06/27 11:34:59;;;;;;;0.90;0.40;;;;;;;18.27;57.04;100409.19;6132701;23;20333;-76
2022/06/27 11:37:29;;;;;;;2.63;0.50;;;;;;;19.10;55.06;100423.47;6134490;23;20053;-76
2022/06/27 11:40:05;;;;;;;1.15;0.30;;;;;;;19.49;54.39;100432.81;6132361;23;20088;-75
2022/06/27 11:49:42;;;;;;;1.20;0.30;;;;;;;21.52;52.34;100434.53;6147406;23;20006;-75
2022/06/27 11:52:50;;;;;;;;;;;;;;;;;;;;;
2022/06/27 11:55:24;;;;;;;1.75;0.57;;;;;;;22.18;48.27;100410.63;6159578;23;20376;-74
2022/06/27 11:57:58;;;;;;;2.78;0.70;;;;;;;22.57;49.08;100425.13;6140250;23;20016;-74
2022/06/27 12:00:25;;;;;;;1.98;0.70;;;;;;;22.79;46.92;100424.66;6188469;23;20020;-74
2022/06/27 12:03:11;;;;;;;0.77;0.40;;;;;;;22.68;46.50;100417.94;6189287;23;20007;-75
2022/06/27 12:05:42;;;;;;;1.95;1.00;;;;;;;22.62;47.27;100433.25;6185171;23;20484;-74
2022/06/27 12:08:13;;;;;;;2.75;0.73;;;;;;;22.49;47.05;100452.75;6163387;23;20019;-75
2022/06/27 12:11:27;;;;;;;;;;;;;;;;;;;;;
2022/06/27 12:14:05;;;;;;;1.00;0.40;;;;;;;21.58;49.49;100439.56;6188182;23;20116;-74
2022/06/27 12:16:53;;;;;;;2.13;0.50;;;;;;;21.38;50.70;100452.28;6151367;23;20079;-75
2022/06/27 12:19:18;;;;;;;1.38;0.70;;;;;;;20.92;52.91;100451.28;6135617;23;20039;-74
2022/06/27 12:21:45;;;;;;;2.55;0.70;;;;;;;20.86;51.25;100455.41;6190068;23;19997;-74
2022/06/27 12:24:30;;;;;;;3.15;0.88;;;;;;;21.28;50.44;100444.34;6159912;23;20340;-73
2022/06/27 12:27:03;;;;;;;5.53;0.88;;;;;;;21.22;48.84;100438.16;6186336;23;20068;-75
2022/06/27 12:29:39;;;;;;;;;;;;;;;;;;;;;
2022/06/27 12:32:08;;;;;;;3.45;0.68;;;;;;;20.38;52.38;100460.97;6140611;23;20076;-76
2022/06/27 12:34:59;;;;;;;6.43;0.90;;;;;;;19.81;50.56;100441.81;6134938;23;20013;-77
2022/06/27 12:41:44;;;;;;;;;;;;;;;;;;;;;
2022/06/27 12:50:59;;;;;;;;;;;;;;;21.47;47.32;100470.88;6014803;23;20406;-78
2022/06/27 12:53:48;;;;;;;6.07;0.75;;;;;;;21.78;46.56;100445.44;5967854;23;19921;-76
2022/06/27 13:08:16;;;;;;;;;;;;;;;;;;;;;
2022/06/27 13:11:34;;;;;;;2.92;0.80;;;;;;;29.03;32.49;100488.31;5820885;24;20251;-75
2022/06/27 13:15:17;;;;;;;;;;;;;;;;;;;;;
2022/06/27 13:24:55;;;;;;;;;;;;;;;;;;;;;
2022/06/27 13:31:40;;;;;;;3.08;0.93;;;;;;;41.41;16.30;100456.34;5832430;24;20025;-74
2022/06/27 13:37:57;;;;;;;;;;;;;;;;;;;;;
2022/06/27 13:40:46;;;;;;;2.88;0.75;;;;;;;29.71;24.97;100431.56;5814962;24;20089;-74
2022/06/27 13:46:19;;;;;;;5.75;0.77;;;;;;;27.08;29.21;100482.44;5846479;24;20042;-73
2022/06/27 13:52:42;;;;;;;6.25;0.82;;;;;;;26.00;29.91;100465.72;5806806;24;20011;-74
2022/06/27 13:56:14;;;;;;;;;;;;;;;;;;;;;
2022/06/27 14:09:15;;;;;;;3.15;1.00;;;;;;;29.30;27.47;100448.69;5957279;23;20350;-75
2022/06/27 14:12:21;;;;;;;;;;;;;;;;;;;;;
2022/06/27 15:39:14;;;;;;;3.65;0.70;;;;;;;18.50;47.81;100533.75;6273706;22;1413541;-75
2022/06/27 15:43:31;;;;;;;;;;;;;;;;;;;;;
2022/06/27 15:46:50;;;;;;;;;;;;;;;;;;;;;
2022/06/27 15:49:13;;;;;;;3.03;1.02;;;;;;;18.91;46.20;100510.50;6312268;22;20306;-74
2022/06/27 15:55:10;;;;;;;7.60;1.60;;;;;;;18.50;46.65;100497.75;6155174;23;20076;-76
2022/06/27 15:57:41;;;;;;;5.25;0.82;;;;;;;18.57;46.92;100494.50;6215335;23;20008;-74
2022/06/27 16:00:25;;;;;;;;;;;;;;;;;;;;;
2022/06/27 16:03:29;;;;;;;;;;;;;;;;;;;;;
2022/06/27 16:06:03;;;;;;;7.82;1.38;;;;;;;18.47;46.72;100520.50;6342948;22;20030;-75
2022/06/27 16:11:49;;;;;;;4.32;1.10;;;;;;;18.05;47.92;100515.19;6293531;22;20086;-74
2022/06/27 16:20:43;;;;;;;;;;;;;;;;;;;;;
2022/06/27 16:23:54;;;;;;;;;;;;;;;;;;;;;
2022/06/27 16:27:11;;;;;;;8.20;1.10;;;;;;;16.48;56.60;100528.09;6126259;23;20030;-73
2022/06/27 16:37:03;;;;;;;7.82;1.20;;;;;;;17.51;53.82;100552.91;5940995;24;20013;-75
2022/06/27 16:40:28;;;;;;;1.85;0.80;;;;;;;19.17;48.48;100512.53;5952608;23;20087;-75
2022/06/27 16:53:53;;;;;;;4.00;0.70;;;;;;;18.42;48.33;100542.81;5818431;24;20017;-76
2022/06/27 17:09:58;;;;;;;;;;;;;;;;;;;;;
2022/06/27 17:13:05;;;;;;;;;;;;;;;;;;;;;
2022/06/27 17:16:29;;;;;;;7.32;1.50;;;;;;;21.76;44.41;100570.22;6165011;23;20064;-74
2022/06/27 17:19:23;;;;;;;5.22;1.25;;;;;;;24.27;39.15;100548.28;6098140;23;20020;-75
2022/06/27 17:23:42;;;;;;;;;;;;;;;;;;;;;
2022/06/27 17:25:30;;;;;;;2.88;0.90;;;;;;;27.47;32.32;100579.72;6066325;23;20006;-74
2022/06/27 17:31:12;;;;;;;4.53;1.00;;;;;;;25.84;31.51;100587.03;6145576;23;20036;-73
2022/06/27 17:33:38;;;;;;;5.93;1.00;;;;;;;24.53;34.18;100570.16;6239551;22;20014;-72
2022/06/27 17:36:04;;;;;;;4.85;0.80;;;;;;;23.76;35.85;100569.16;6226793;22;20015;-74
2022/06/27 17:38:29;;;;;;;3.22;0.90;;;;;;;23.67;35.91;100576.84;6251947;22;20327;-73
2022/06/27 17:40:56;;;;;;;3.40;1.00;;;;;;;23.22;36.52;100575.00;6280311;22;20003;-73
2022/06/27 17:43:21;;;;;;;4.78;0.80;;;;;;;23.01;35.79;100587.06;6252481;22;20037;-73
2022/06/27 17:45:49;;;;;;;6.10;1.55;;;;;;;22.25;37.29;100578.81;6228195;22;20373;-73
2022/06/27 17:48:22;;;;;;;2.83;1.00;;;;;;;21.39;38.50;100558.78;6251620;22;20046;-72
2022/06/27 17:50:50;;;;;;;3.60;1.10;;;;;;;20.86;40.20;100575.69;6277757;22;20014;-75
2022/06/27 17:53:16;;;;;;;8.63;1.27;;;;;;;20.23;41.58;100569.78;6276427;22;20118;-73
2022/06/27 17:55:42;;;;;;;3.50;0.95;;;;;;;20.00;42.93;100571.91;6252391;22;20018;-72
2022/06/27 17:58:13;;;;;;;2.53;1.00;;;;;;;19.79;43.36;100555.09;6252316;22;20003;-77
2022/06/27 18:00:39;;;;;;;6.45;0.93;;;;;;;19.64;44.17;100576.56;6257501;22;20042;-76
2022/06/27 18:03:08;;;;;;;3.33;1.20;;;;;;;19.44;44.96;100583.53;6255441;22;20004;-76
2022/06/27 18:05:46;;;;;;;;;;;;;;;;;;;;;
2022/06/27 18:08:40;;;;;;;2.60;0.95;;;;;;;18.75;46.15;100572.94;6310321;22;20023;-78
2022/06/27 18:11:06;;;;;;;6.90;1.25;;;;;;;18.51;46.62;100579.66;6257515;22;20060;-81
2022/06/27 18:17:09;;;;;;;4.78;1.25;;;;;;;18.14;47.35;100545.72;6311891;22;20365;-79
2022/06/27 18:19:40;;;;;;;6.60;1.25;;;;;;;18.38;47.26;100575.00;6283272;22;20060;-78
2022/06/27 18:22:26;;;;;;;2.80;1.08;;;;;;;18.27;47.75;100580.81;6311706;22;20034;-81
2022/06/27 18:25:04;;;;;;;;;;;;;;;;;;;;;
2022/06/27 18:27:30;;;;;;;5.00;1.13;;;;;;;18.17;48.52;100591.31;6309584;22;20379;-78
2022/06/27 18:29:58;;;;;;;8.18;1.30;;;;;;;18.05;48.53;100594.63;6283466;22;20007;-78
2022/06/27 18:32:37;;;;;;;;;;;;;;;;;;;;;
2022/06/27 18:35:03;;;;;;;6.40;1.35;;;;;;;17.59;50.23;100596.44;6311153;22;20722;-74
2022/06/27 18:37:34;;;;;;;2.47;0.85;;;;;;;17.56;50.90;100622.75;6311541;22;20010;-75
2022/06/27 18:40:00;;;;;;;6.70;1.05;;;;;;;17.40;51.73;100632.47;6310842;22;20026;-77
2022/06/27 18:42:35;;;;;;;;;;;;;;;;;;;;;
2022/06/27 18:45:05;;;;;;;3.67;0.88;;;;;;;16.91;52.07;100624.56;6309575;22;20054;-74
2022/06/27 18:47:30;;;;;;;4.38;1.10;;;;;;;16.86;53.08;100638.41;6309763;22;20024;-75
2022/06/27 18:50:54;;;;;;;;;;;;;;;;;;;;;
2022/06/27 18:56:42;;;;;;;7.38;0.90;;;;;;;16.50;53.57;100625.22;6185897;23;20005;-77
2022/06/27 19:09:53;;;;;;;5.95;1.63;;;;;;;16.31;55.45;100649.25;6004568;23;20480;-76
2022/06/27 19:12:21;;;;;;;5.10;1.40;;;;;;;16.27;55.64;100638.00;6171119;23;20017;-77
2022/06/27 19:15:36;;;;;;;;;;;;;;;;;;;;;
2022/06/27 19:17:59;;;;;;;4.35;0.98;;;;;;;16.16;55.96;100631.00;6097164;23;20362;-77
2022/06/27 19:31:39;;;;;;;6.57;1.35;;;;;;;15.90;57.36;100617.56;5923840;23;20050;-77
2022/06/27 19:37:20;;;;;;;4.10;1.23;;;;;;;16.07;57.41;100633.59;6070415;23;20007;-77
2022/06/27 19:43:33;;;;;;;4.53;1.20;;;;;;;16.21;57.47;100653.81;6092988;23;20011;-77
2022/06/27 19:46:08;;;;;;;;;;;;;;;16.31;57.57;100665.81;6082925;23;20010;-78